createdAt,value
2023-01-13T00:03:12.913Z,22.53
2023-01-13T00:08:20.089Z,22.37
2023-01-13T00:13:27.331Z,22.25
2023-01-13T00:18:34.612Z,22.19
2023-01-13T00:23:41.814Z,22.11
2023-01-13T00:28:49.027Z,22.09
2023-01-13T00:33:56.316Z,21.98
2023-01-13T00:39:03.530Z,21.90
2023-01-13T00:44:10.739Z,21.84
2023-01-13T00:49:17.960Z,21.78
2023-01-13T00:54:25.160Z,21.57
2023-01-13T00:59:32.486Z,21.54
2023-01-13T01:04:39.857Z,21.46
2023-01-13T01:09:47.063Z,21.32
2023-01-13T01:14:54.270Z,21.34
2023-01-13T01:20:01.516Z,21.33
2023-01-13T01:25:08.773Z,21.28
2023-01-13T01:30:16.039Z,21.23
2023-01-13T01:35:23.306Z,21.22
2023-01-13T01:40:30.496Z,21.16
2023-01-13T01:45:37.721Z,21.15
2023-01-13T01:50:45.028Z,21.13
2023-01-13T01:55:52.220Z,21.08
2023-01-13T02:00:59.526Z,21.03
2023-01-13T02:06:06.647Z,21.02
2023-01-13T02:11:13.914Z,20.96
2023-01-13T02:16:21.186Z,20.95
2023-01-13T02:21:28.357Z,20.91
2023-01-13T02:26:35.539Z,20.87
2023-01-13T02:31:42.919Z,20.81
2023-01-13T02:36:50.077Z,20.79
2023-01-13T02:41:57.285Z,20.75
2023-01-13T02:47:04.499Z,20.75
2023-01-13T02:52:11.811Z,20.69
2023-01-13T02:57:18.975Z,20.70
2023-01-13T03:02:26.319Z,20.66
2023-01-13T03:07:33.361Z,20.64
2023-01-13T03:12:40.501Z,20.64
2023-01-13T03:17:47.755Z,20.61
2023-01-13T03:22:54.944Z,20.55
2023-01-13T03:28:02.159Z,20.53
2023-01-13T03:33:09.367Z,20.49
2023-01-13T03:38:16.633Z,20.46
2023-01-13T03:43:23.878Z,20.40
2023-01-13T03:48:31.079Z,20.25
2023-01-13T03:53:38.425Z,20.18
2023-01-13T03:58:45.696Z,20.05
2023-01-13T04:03:52.896Z,19.82
2023-01-13T04:09:00.030Z,19.97
2023-01-13T04:14:07.199Z,20.06
2023-01-13T04:19:14.391Z,20.12
2023-01-13T04:24:21.618Z,20.09
2023-01-13T04:29:28.814Z,20.12
2023-01-13T04:34:35.977Z,20.13
2023-01-13T04:39:43.233Z,20.13
2023-01-13T04:44:50.356Z,20.13
2023-01-13T04:49:57.601Z,20.13
2023-01-13T04:55:04.858Z,20.10
2023-01-13T05:00:12.018Z,20.05
2023-01-13T05:05:19.280Z,20.05
2023-01-13T05:10:26.429Z,20.03
2023-01-13T05:15:33.748Z,20.02
2023-01-13T05:20:40.811Z,20.02
2023-01-13T05:25:48.101Z,19.97
2023-01-13T05:30:55.303Z,19.98
2023-01-13T05:36:02.488Z,19.98
2023-01-13T05:41:09.725Z,19.96
2023-01-13T05:46:17.011Z,19.95
2023-01-13T05:51:24.284Z,19.90
2023-01-13T05:56:31.518Z,19.94
2023-01-13T06:01:38.711Z,19.95
2023-01-13T06:06:45.929Z,19.95
2023-01-13T06:11:53.329Z,19.98
2023-01-13T06:17:00.662Z,20.00
2023-01-13T06:22:07.838Z,19.98
2023-01-13T06:27:15.033Z,19.98
2023-01-13T06:32:22.244Z,19.98
2023-01-13T06:37:29.466Z,19.96
2023-01-13T06:42:36.722Z,19.95
2023-01-13T06:47:43.865Z,19.92
2023-01-13T06:52:51.063Z,19.91
2023-01-13T06:57:58.301Z,19.90
2023-01-13T07:03:07.032Z,19.87
2023-01-13T07:08:12.589Z,19.86
2023-01-13T07:13:20.016Z,19.85
2023-01-13T07:18:27.117Z,19.81
2023-01-13T07:23:34.286Z,19.79
2023-01-13T07:28:41.546Z,19.80
2023-01-13T07:33:48.706Z,19.77
2023-01-13T07:38:55.850Z,19.76
2023-01-13T07:44:03.061Z,19.82
2023-01-13T07:49:10.202Z,19.92
2023-01-13T07:54:19.318Z,20.00
2023-01-13T07:59:24.631Z,20.07
2023-01-13T08:04:31.816Z,20.11
2023-01-13T08:09:39.035Z,20.24
2023-01-13T08:14:46.274Z,20.39
2023-01-13T08:19:53.482Z,20.54
2023-01-13T08:25:00.641Z,20.66
2023-01-13T08:30:07.884Z,20.83
2023-01-13T08:35:15.082Z,20.92
2023-01-13T08:40:22.376Z,21.03
2023-01-13T08:45:29.628Z,21.13
2023-01-13T08:50:36.834Z,21.23
2023-01-13T08:55:44.105Z,21.30
2023-01-13T09:00:51.314Z,21.36
2023-01-13T09:05:58.515Z,21.46
2023-01-13T09:11:05.992Z,21.52
2023-01-13T09:16:13.333Z,21.54
2023-01-13T09:21:20.421Z,21.57
2023-01-13T09:26:27.619Z,21.57
2023-01-13T09:31:34.935Z,21.54
2023-01-13T09:36:42.012Z,21.46
2023-01-13T09:41:49.171Z,21.43
2023-01-13T09:46:56.374Z,21.39
2023-01-13T09:52:03.587Z,21.30
2023-01-13T09:57:10.823Z,21.24
2023-01-13T10:02:18.094Z,21.19
2023-01-13T10:07:25.218Z,21.19
2023-01-13T10:12:32.465Z,21.23
2023-01-13T10:17:39.694Z,21.23
2023-01-13T10:22:46.865Z,21.30
2023-01-13T10:27:54.094Z,21.31
2023-01-13T10:33:01.377Z,21.38
2023-01-13T10:38:08.599Z,21.50
2023-01-13T10:43:15.852Z,21.57
2023-01-13T10:48:23.129Z,21.62
2023-01-13T10:53:30.311Z,21.68
2023-01-13T10:58:37.532Z,21.64
2023-01-13T11:03:44.761Z,21.64
2023-01-13T11:08:51.914Z,21.63
2023-01-13T11:13:59.142Z,21.58
2023-01-13T11:19:06.304Z,21.60
2023-01-13T11:24:13.538Z,21.52
2023-01-13T11:29:20.725Z,21.50
2023-01-13T11:34:27.975Z,21.49
2023-01-13T11:39:35.209Z,21.50
2023-01-13T11:44:42.455Z,21.55
2023-01-13T11:49:49.662Z,21.62
2023-01-13T11:54:56.801Z,21.70
2023-01-13T12:00:03.970Z,21.75
2023-01-13T12:05:11.196Z,21.77
2023-01-13T12:10:18.447Z,21.78
2023-01-13T12:15:25.528Z,21.72
2023-01-13T12:20:32.998Z,21.63
2023-01-13T12:25:40.177Z,21.52
2023-01-13T12:30:47.335Z,21.22
2023-01-13T12:35:54.600Z,21.32
2023-01-13T12:41:01.798Z,21.32
2023-01-13T12:46:09.033Z,21.33
2023-01-13T12:51:18.249Z,21.34
2023-01-13T12:56:23.415Z,21.43
2023-01-13T13:01:30.719Z,21.48
2023-01-13T13:06:37.780Z,21.54
2023-01-13T13:11:44.952Z,21.55
2023-01-13T13:16:52.347Z,21.47
2023-01-13T13:21:59.559Z,21.46
2023-01-13T13:27:06.738Z,21.43
2023-01-13T13:32:13.960Z,21.23
2023-01-13T13:37:21.198Z,21.27
2023-01-13T13:42:28.363Z,21.13
2023-01-13T13:47:35.530Z,21.09
2023-01-13T13:52:42.779Z,21.11
2023-01-13T13:57:50.286Z,21.18
2023-01-13T14:02:57.504Z,21.29
2023-01-13T14:08:04.725Z,21.50
2023-01-13T14:13:11.893Z,21.48
2023-01-13T14:18:19.041Z,21.43
2023-01-13T14:23:26.259Z,21.40
2023-01-13T14:28:33.343Z,21.33
2023-01-13T14:33:40.498Z,21.36
2023-01-13T14:38:47.737Z,21.32
2023-01-13T14:43:54.939Z,21.28
2023-01-13T14:49:02.108Z,21.30
2023-01-13T14:54:09.286Z,21.20
2023-01-13T14:59:16.392Z,21.06
2023-01-13T15:04:23.661Z,21.18
2023-01-13T15:09:30.897Z,21.25
2023-01-13T15:14:38.088Z,21.31
2023-01-13T15:19:45.283Z,21.39
2023-01-13T15:24:52.468Z,21.45
2023-01-13T15:29:59.700Z,21.47
2023-01-13T15:35:06.935Z,21.50
2023-01-13T15:40:14.131Z,21.48
2023-01-13T15:45:21.374Z,21.46
2023-01-13T15:50:28.620Z,21.46
2023-01-13T15:55:35.806Z,21.44
2023-01-13T16:00:43.074Z,21.46
2023-01-13T16:05:50.231Z,21.46
2023-01-13T16:10:57.507Z,21.54
2023-01-13T16:16:04.679Z,21.60
2023-01-13T16:21:11.923Z,21.67
2023-01-13T16:26:19.115Z,21.69
2023-01-13T16:31:26.352Z,21.74
2023-01-13T16:36:33.631Z,21.73
2023-01-13T16:41:40.891Z,21.77
2023-01-13T16:46:48.652Z,21.91
2023-01-13T16:51:55.859Z,22.05
2023-01-13T16:57:03.129Z,22.19
2023-01-13T17:02:10.276Z,22.24
2023-01-13T17:07:17.805Z,22.37
2023-01-13T17:12:25.281Z,22.34
2023-01-13T17:17:32.588Z,22.39
2023-01-13T17:22:39.824Z,22.48
2023-01-13T17:27:47.050Z,22.47
2023-01-13T17:32:54.177Z,22.49
2023-01-13T17:38:01.721Z,22.53
2023-01-13T17:43:09.169Z,22.60
2023-01-13T17:48:16.392Z,22.66
2023-01-13T17:53:23.597Z,22.71
2023-01-13T17:58:31.076Z,22.75
2023-01-13T18:03:38.385Z,22.80
2023-01-13T18:08:45.797Z,22.84
2023-01-13T18:13:53.092Z,22.92
2023-01-13T18:19:00.273Z,22.98
2023-01-13T18:24:07.781Z,23.06
2023-01-13T18:29:15.188Z,23.12
2023-01-13T18:34:22.400Z,23.17
2023-01-13T18:39:29.661Z,23.21
2023-01-13T18:44:37.675Z,23.25
2023-01-13T18:49:44.830Z,23.25
2023-01-13T18:54:52.345Z,23.32
2023-01-13T18:59:59.974Z,23.38
2023-01-13T19:05:07.311Z,23.44
2023-01-13T19:10:14.563Z,23.50
2023-01-13T19:15:21.799Z,23.64
2023-01-13T19:20:28.990Z,23.73
2023-01-13T19:25:36.277Z,23.74
2023-01-13T19:30:43.828Z,23.82
2023-01-13T19:35:51.431Z,23.94
2023-01-13T19:40:58.922Z,23.88
2023-01-13T19:46:08.098Z,23.86
2023-01-13T19:51:15.265Z,23.86
2023-01-13T19:56:22.802Z,23.96
2023-01-13T20:01:30.673Z,24.01
2023-01-13T20:06:38.021Z,24.14
2023-01-13T20:11:45.453Z,24.13
2023-01-13T20:16:52.918Z,24.15
2023-01-13T20:22:01.479Z,24.21
2023-01-13T20:27:08.855Z,24.27
2023-01-13T20:32:16.231Z,24.31
2023-01-13T20:37:23.548Z,24.41
2023-01-13T20:42:31.018Z,24.49
2023-01-13T20:47:38.656Z,24.59
2023-01-13T20:52:46.160Z,24.66
2023-01-13T20:57:54.673Z,24.71
2023-01-13T21:03:01.973Z,24.71
2023-01-13T21:08:09.140Z,24.74
2023-01-13T21:13:16.303Z,24.71
2023-01-13T21:18:23.643Z,24.73
2023-01-13T21:23:30.821Z,24.75
2023-01-13T21:28:38.029Z,24.73
2023-01-13T21:33:45.429Z,24.69
2023-01-13T21:38:52.637Z,24.69
2023-01-13T21:43:59.889Z,24.70
2023-01-13T21:49:07.136Z,24.71
2023-01-13T21:54:14.342Z,24.72
2023-01-13T21:59:21.554Z,24.84
2023-01-13T22:04:28.779Z,24.80
2023-01-13T22:09:35.982Z,24.87
2023-01-13T22:14:43.179Z,24.99
2023-01-13T22:19:50.394Z,25.07
2023-01-13T22:24:57.642Z,25.15
2023-01-13T22:30:04.866Z,25.29
2023-01-13T22:35:12.084Z,25.37
2023-01-13T22:40:19.308Z,25.46
2023-01-13T22:45:26.543Z,25.51
2023-01-13T22:50:34.451Z,25.58
2023-01-13T22:55:41.664Z,25.74
2023-01-13T23:00:48.827Z,25.77
2023-01-13T23:05:56.085Z,25.83
2023-01-13T23:11:03.257Z,25.93
2023-01-13T23:16:10.502Z,25.95
2023-01-13T23:21:17.679Z,26.02
2023-01-13T23:26:24.877Z,26.05
2023-01-13T23:31:32.106Z,26.07
2023-01-13T23:36:39.377Z,26.02
2023-01-13T23:41:46.564Z,25.96
2023-01-13T23:46:53.798Z,25.78
2023-01-13T23:52:01.024Z,25.73
2023-01-13T23:57:08.201Z,25.52
